MDT,Max TemperatureF,Mean TemperatureF,Min TemperatureF,Max Dew PointF,MeanDew PointF,Min DewpointF,Max Humidity, Mean Humidity, Min Humidity, Max Sea Level PressureIn, Mean Sea Level PressureIn, Min Sea Level PressureIn, Max VisibilityMiles, Mean VisibilityMiles, Min VisibilityMiles, Max Wind SpeedMPH, Mean Wind SpeedMPH, Max Gust SpeedMPH,PrecipitationIn, CloudCover, Events, WindDirDegrees
2013-7-1,78,60,42,52,44,36,100,64,22,30.46,30.41,30.33,10,10,7,15,6,26,0.00,1,Thunderstorm,111
2013-7-2,77,62,46,48,43,36,94,56,24,30.45,30.37,30.25,10,10,7,18,5,24,0.00,1,Thunderstorm,207
2013-7-3,78,60,42,46,40,28,87,52,16,30.36,30.29,30.19,10,10,10,20,4,30,0.00,2,Thunderstorm,214
2013-7-4,84,68,51,41,37,32,58,36,15,30.27,30.22,30.14,10,10,10,24,9,38,0.00,1,,131
2013-7-5,78,64,51,52,44,39,77,51,28,30.24,30.19,30.11,10,10,5,17,6,22,0.00,1,Thunderstorm,150
2013-7-6,80,65,50,50,45,36,82,53,21,30.31,30.23,30.15,10,10,10,20,7,29,0.00,2,Thunderstorm,121
2013-7-7,80,68,55,54,47,43,82,54,28,30.39,30.29,30.24,10,10,5,21,6,33,0.02,2,Thunderstorm,111
2013-7-8,82,66,51,54,47,39,94,56,21,30.43,30.38,30.33,10,10,5,13,6,20,0.06,3,,193
2013-7-9,87,69,51,45,39,28,63,35,12,30.48,30.42,30.35,10,10,10,16,8,21,0.00,0,Thunderstorm,303
2013-7-10,84,70,55,46,42,34,59,39,16,30.47,30.41,30.29,10,10,10,17,8,30,0.00,1,,209
2013-7-11,86,68,51,46,42,34,71,42,16,30.40,30.32,30.20,10,10,10,21,7,25,0.00,1,Thunderstorm,248
2013-7-12,78,68,57,50,46,43,59,47,30,30.33,30.29,30.26,10,10,10,31,10,39,0.00,3,Thunderstorm,315
2013-7-13,78,66,53,55,47,43,77,49,28,30.39,30.35,30.29,10,10,7,26,10,33,0.00,4,Thunderstorm,306
2013-7-14,82,68,53,55,49,41,94,62,23,30.40,30.36,30.28,10,9,1,21,9,30,0.26,4,Thunderstorm,324
2013-7-15,68,60,51,55,52,48,100,74,59,30.40,30.34,30.29,10,10,7,17,7,25,0.00,5,Thunderstorm,281
2013-7-16,75,60,44,46,44,41,93,58,29,30.46,30.37,30.32,10,10,10,15,5,20,0.00,3,Thunderstorm,170
2013-7-17,78,62,46,45,42,37,82,50,25,30.51,30.44,30.37,10,10,10,13,7,18,0.00,0,Thunderstorm,184
2013-7-18,80,64,48,54,47,41,88,58,32,30.46,30.41,30.31,10,10,2,22,7,30,0.05,1,Thunderstorm,298
2013-7-19,78,64,50,55,50,45,94,68,32,30.41,30.37,30.32,10,10,3,31,11,37,0.04,,Thunderstorm,319
2013-7-20,57,52,48,52,50,48,100,88,82,30.37,30.34,30.33,10,10,7,9,5,,0.00,,,338
2013-7-21,,,,,,,,,,,,,,,,,,,,,,
2013-7-22,,,,,,,,,,,,,,,,,,,,,,
2013-7-23,,,,,,,,,,,,,,,,,,,,,,
2013-7-24,,,,,,,,,,,,,,,,,,,,,,
2013-7-25,,,,,,,,,,,,,,,,,,,0.00,,,-1
2013-7-26,78,63,48,48,45,39,87,55,26,30.50,30.44,30.38,10,10,10,21,7,28,0.00,1,Thunderstorm,129
2013-7-27,73,60,48,52,47,39,93,63,33,30.48,30.37,30.26,10,10,7,24,7,34,0.02,3,Rain-Thunderstorm,344
2013-7-28,62,56,51,55,53,52,100,88,72,30.31,30.24,30.19,10,9,1,10,4,,0.21,6,Rain-Thunderstorm,155
2013-7-29,77,64,50,52,45,37,100,59,27,30.44,30.30,30.23,10,10,10,32,7,39,0.00,3,Thunderstorm,323
2013-7-30,80,65,50,45,35,25,76,39,13,30.51,30.47,30.43,10,10,10,26,12,32,0.00,1,,328
2013-7-31,82,66,51,41,35,32,54,30,17,30.56,30.47,30.38,10,10,10,17,10,21,0.00,2,,262